Time;durP1;ratioP1;P1;durP2;ratioP2;P2;SDS_P1;SDS_P2;PMS_P1;PMS_P2;Temp;Humidity;BMP_temperature;BMP_pressure;BME280_temperature;BME280_humidity;BME280_pressure;Samples;Min_cycle;Max_cycle;Signal;HPM_P1;HPM_P2
2022/04/25 00:00:01;;;;;;;24.50;8.63;;;;;;;13.77;nan;-24201.22;5011549;28;20218;-74
2022/04/25 00:02:26;;;;;;;21.50;7.88;;;;;;;13.96;nan;-24206.69;5011314;28;20675;-75
2022/04/25 00:04:52;;;;;;;30.83;7.80;;;;;;;13.95;nan;-24206.41;5011246;28;20168;-76
2022/04/25 00:07:17;;;;;;;18.10;7.38;;;;;;;14.31;nan;-24216.22;5010257;28;20279;-75
2022/04/25 00:09:44;;;;;;;15.32;6.55;;;;;;;14.16;nan;-24212.31;5011850;28;20271;-77
2022/04/25 00:12:10;;;;;;;17.17;6.25;;;;;;;14.04;nan;-24208.94;5010465;28;20180;-74
2022/04/25 00:14:35;;;;;;;16.90;5.97;;;;;;;14.08;nan;-24210.06;5011252;28;20180;-74
2022/04/25 00:17:00;;;;;;;18.42;5.93;;;;;;;14.13;nan;-24211.47;5011759;28;20187;-77
2022/04/25 00:19:26;;;;;;;15.85;6.82;;;;;;;14.44;nan;-24219.88;5011182;28;20542;-76
2022/04/25 00:21:51;;;;;;;19.83;6.70;;;;;;;14.25;nan;-24214.69;5011547;28;20177;-74
2022/04/25 00:24:20;;;;;;;21.98;7.15;;;;;;;14.25;nan;-24214.69;5011381;28;20683;-75
2022/04/25 00:26:45;;;;;;;13.77;6.80;;;;;;;14.43;nan;-24219.75;5011592;28;20184;-75
2022/04/25 00:29:12;;;;;;;22.05;7.35;;;;;;;13.89;nan;-24204.59;5011298;28;20168;-73
2022/04/25 00:31:37;;;;;;;14.35;5.97;;;;;;;14.19;nan;-24213.00;5009986;28;20180;-78
2022/04/25 00:34:03;;;;;;;16.85;6.38;;;;;;;13.93;nan;-24205.72;5011253;28;20651;-74
2022/04/25 00:36:28;;;;;;;18.42;5.78;;;;;;;14.05;nan;-24209.22;5011217;28;20176;-77
2022/04/25 00:38:53;;;;;;;18.40;6.07;;;;;;;13.53;nan;-24194.75;5011254;28;20621;-77
2022/04/25 00:41:19;;;;;;;16.83;6.80;;;;;;;13.79;nan;-24201.78;5011564;28;20168;-74
2022/04/25 00:43:44;;;;;;;16.33;7.43;;;;;;;13.94;nan;-24206.13;5014763;28;20236;-76
2022/04/25 00:46:24;;;;;;;21.75;8.05;;;;;;;13.71;nan;-24199.69;5014816;28;20658;-77
2022/04/25 00:48:50;;;;;;;19.08;8.45;;;;;;;13.57;nan;-24195.75;5015370;28;20175;-76
2022/04/25 00:51:16;;;;;;;20.90;8.50;;;;;;;13.78;nan;-24201.63;5014893;28;20185;-77
2022/04/25 00:53:47;;;;;;;19.67;9.27;;;;;;;13.30;nan;-24188.16;5013190;28;20603;-76
2022/04/25 00:56:17;;;;;;;20.95;8.68;;;;;;;13.66;nan;-24198.28;5014544;28;20187;-78
2022/04/25 00:58:44;;;;;;;20.05;8.73;;;;;;;13.41;nan;-24191.38;5014501;28;20176;-74
2022/04/25 01:01:10;;;;;;;21.40;8.75;;;;;;;13.05;nan;-24181.41;5014184;28;20179;-77
2022/04/25 01:03:35;;;;;;;16.98;8.63;;;;;;;13.50;nan;-24193.78;5014689;28;20203;-76
2022/04/25 01:06:00;;;;;;;23.88;9.25;;;;;;;12.97;nan;-24179.03;5014329;28;20183;-76
2022/04/25 01:08:28;;;;;;;21.08;8.57;;;;;;;13.29;nan;-24188.03;5014561;28;20168;-73
2022/04/25 01:10:55;;;;;;;18.70;9.18;;;;;;;13.23;nan;-24186.34;5014450;28;20183;-77
2022/04/25 01:13:21;;;;;;;20.15;8.55;;;;;;;12.98;nan;-24179.31;5014230;28;20191;-75
2022/04/25 01:15:46;;;;;;;18.75;7.97;;;;;;;13.01;nan;-24180.28;5012965;28;20184;-76
2022/04/25 01:18:12;;;;;;;24.13;8.30;;;;;;;13.20;nan;-24185.63;5014766;28;20168;-74
2022/04/25 01:20:37;;;;;;;13.98;7.63;;;;;;;13.28;nan;-24187.88;5014307;28;20172;-76
2022/04/25 01:28:47;;;;;;;21.25;9.02;;;;;;;13.39;nan;-24190.84;5014023;28;20178;-75
2022/04/25 01:31:12;;;;;;;24.63;9.25;;;;;;;12.90;nan;-24177.06;5014154;28;20267;-76
2022/04/25 01:33:37;;;;;;;26.45;9.13;;;;;;;13.26;nan;-24187.31;5013954;28;20175;-74
2022/04/25 01:36:03;;;;;;;20.00;9.13;;;;;;;12.87;nan;-24176.34;5014213;28;20263;-74
2022/04/25 01:38:28;;;;;;;20.55;8.95;;;;;;;12.46;nan;-24164.81;5013799;28;20202;-74
2022/04/25 01:40:54;;;;;;;24.42;9.68;;;;;;;12.56;nan;-24167.63;5013914;28;20205;-77
2022/04/25 01:43:19;;;;;;;23.35;9.27;;;;;;;12.43;nan;-24163.97;5014425;28;20190;-75
2022/04/25 01:45:45;;;;;;;17.55;8.63;;;;;;;12.80;nan;-24174.53;5013895;28;20187;-75
2022/04/25 01:48:10;;;;;;;21.83;9.43;;;;;;;12.59;nan;-24168.47;5013470;28;20172;-77
2022/04/25 01:50:35;;;;;;;19.77;8.82;;;;;;;12.33;nan;-24161.44;5013613;28;20600;-75
2022/04/25 01:53:01;;;;;;;20.77;8.40;;;;;;;12.24;nan;-24158.78;5013158;28;20223;-75
2022/04/25 01:55:26;;;;;;;26.30;9.48;;;;;;;12.10;nan;-24154.81;5012271;28;20203;-76
2022/04/25 01:57:51;;;;;;;21.77;9.27;;;;;;;12.15;nan;-24156.38;5013777;28;20187;-77
2022/04/25 02:00:17;;;;;;;18.20;9.38;;;;;;;11.82;nan;-24147.22;5013652;28;20549;-75
2022/04/25 02:02:42;;;;;;;19.83;8.80;;;;;;;11.78;nan;-24145.97;5013671;28;20207;-78
2022/04/25 02:05:08;;;;;;;16.90;8.63;;;;;;;11.78;nan;-24145.97;5013430;28;20543;-75
2022/04/25 02:07:35;;;;;;;26.17;9.15;;;;;;;11.51;nan;-24138.63;5013446;28;20164;-78
2022/04/25 02:10:00;;;;;;;20.25;9.27;;;;;;;11.60;nan;-24140.88;5013216;28;20705;-76
2022/04/25 02:12:26;;;;;;;20.75;9.88;;;;;;;11.41;nan;-24135.81;5013370;28;20172;-74
2022/04/25 02:14:51;;;;;;;21.73;9.77;;;;;;;11.74;nan;-24144.84;5013173;28;20206;-75
2022/04/25 02:17:17;;;;;;;23.25;9.88;;;;;;;11.44;nan;-24136.50;5011947;28;20229;-75
2022/04/25 02:19:44;;;;;;;18.58;9.25;;;;;;;11.63;nan;-24141.72;5012812;28;20652;-76
2022/04/25 02:22:10;;;;;;;27.95;10.15;;;;;;;11.49;nan;-24138.06;5012989;28;20321;-77
2022/04/25 02:24:36;;;;;;;29.05;9.95;;;;;;;11.94;nan;-24150.59;5011557;28;20180;-77
2022/04/25 02:27:03;;;;;;;17.20;9.18;;;;;;;11.92;nan;-24150.03;5013224;28;20623;-75
2022/04/25 02:29:30;;;;;;;19.50;9.25;;;;;;;11.81;nan;-24146.81;5012830;28;20176;-76
2022/04/25 02:31:55;;;;;;;19.50;8.70;;;;;;;11.74;nan;-24144.84;5013032;28;20178;-74
2022/04/25 02:34:21;;;;;;;22.17;9.85;;;;;;;11.55;nan;-24139.47;5012931;28;20620;-74
2022/04/25 02:36:46;;;;;;;25.65;10.32;;;;;;;11.66;nan;-24142.56;5011784;28;20184;-74
2022/04/25 02:39:11;;;;;;;27.80;10.02;;;;;;;11.62;nan;-24141.44;5013056;28;20172;-76
2022/04/25 02:41:37;;;;;;;18.00;10.48;;;;;;;11.87;nan;-24148.50;5013308;28;20175;-77
2022/04/25 02:44:02;;;;;;;22.63;10.93;;;;;;;11.74;nan;-24144.84;5012469;28;20207;-76
2022/04/25 02:46:28;;;;;;;27.52;11.35;;;;;;;11.54;nan;-24139.34;5012410;28;20302;-74
2022/04/25 02:48:53;;;;;;;22.67;9.80;;;;;;;11.55;nan;-24139.63;5012436;28;20659;-74
2022/04/25 02:51:19;;;;;;;28.77;10.90;;;;;;;11.56;nan;-24139.75;5013064;28;20183;-77
2022/04/25 02:53:44;;;;;;;26.83;10.82;;;;;;;11.90;nan;-24149.47;5010744;28;20340;-74
2022/04/25 02:56:10;;;;;;;21.50;10.10;;;;;;;11.59;nan;-24140.75;5011219;28;20180;-76
2022/04/25 02:58:38;;;;;;;21.67;9.93;;;;;;;11.65;nan;-24142.44;5012120;28;20172;-75
2022/04/25 03:01:07;;;;;;;18.92;10.55;;;;;;;11.50;nan;-24138.22;5012384;28;20164;-77
2022/04/25 03:03:35;;;;;;;26.02;11.30;;;;;;;11.55;nan;-24139.47;5012221;28;20199;-73
2022/04/25 03:06:02;;;;;;;21.92;10.50;;;;;;;11.41;nan;-24135.81;5011526;28;20172;-75
2022/04/25 03:08:28;;;;;;;22.85;10.73;;;;;;;11.66;nan;-24142.72;5012294;28;20267;-76
2022/04/25 03:10:54;;;;;;;28.85;11.00;;;;;;;11.77;nan;-24145.69;5012496;28;20180;-74
2022/04/25 03:13:21;;;;;;;21.60;10.68;;;;;;;11.80;nan;-24146.66;5012354;28;20511;-75
2022/04/25 03:15:47;;;;;;;24.85;9.90;;;;;;;11.81;nan;-24146.94;5010881;28;20199;-76
2022/04/25 03:18:15;;;;;;;19.35;10.52;;;;;;;11.87;nan;-24148.63;5012070;28;20230;-74
2022/04/25 03:20:45;;;;;;;24.75;10.20;;;;;;;11.53;nan;-24139.19;5011648;28;20250;-75
2022/04/25 03:23:11;;;;;;;20.63;9.85;;;;;;;11.72;nan;-24144.41;5011785;28;20583;-76
2022/04/25 03:25:38;;;;;;;21.98;10.07;;;;;;;11.76;nan;-24145.41;5012419;28;20621;-75
2022/04/25 03:28:05;;;;;;;24.17;10.27;;;;;;;11.87;nan;-24148.50;5012130;28;20238;-73
2022/04/25 03:30:30;;;;;;;24.02;9.93;;;;;;;11.85;nan;-24148.06;5012110;28;20172;-77
2022/04/25 03:32:56;;;;;;;28.17;10.35;;;;;;;11.72;nan;-24144.25;5012007;28;20190;-74
2022/04/25 03:35:22;;;;;;;24.20;11.05;;;;;;;11.55;nan;-24139.63;5011431;28;20228;-77
2022/04/25 03:37:49;;;;;;;27.23;11.70;;;;;;;11.60;nan;-24140.88;5011564;28;20179;-76
2022/04/25 03:40:15;;;;;;;23.33;11.57;;;;;;;11.77;nan;-24145.81;5011802;28;20176;-77
2022/04/25 03:42:43;;;;;;;20.30;10.75;;;;;;;11.87;nan;-24148.50;5010503;28;20204;-77
2022/04/25 03:45:09;;;;;;;20.00;10.85;;;;;;;12.46;nan;-24164.81;5011822;28;20203;-76
2022/04/25 03:47:38;;;;;;;20.67;10.27;;;;;;;12.27;nan;-24159.75;5011664;28;20175;-76
2022/04/25 03:50:08;;;;;;;15.98;10.32;;;;;;;12.52;nan;-24166.50;5012484;28;20179;-78
2022/04/25 03:52:35;;;;;;;15.95;9.45;;;;;;;12.82;nan;-24174.94;5011935;28;20172;-76
2022/04/25 03:57:47;;;;;;;22.52;10.10;;;;;;;12.80;nan;-24174.38;5012067;28;20186;-75
2022/04/25 04:00:13;;;;;;;20.30;9.68;;;;;;;13.57;nan;-24195.88;5011764;28;20495;-75
2022/04/25 04:02:38;;;;;;;15.85;9.75;;;;;;;13.96;nan;-24206.69;5011507;28;20211;-76
2022/04/25 04:05:05;;;;;;;20.92;10.35;;;;;;;13.99;nan;-24207.53;5011430;28;20259;-74
2022/04/25 04:07:31;;;;;;;18.80;9.63;;;;;;;14.39;nan;-24218.47;5011801;28;20176;-76
2022/04/25 04:09:56;;;;;;;20.45;9.80;;;;;;;14.93;nan;-24233.63;5012050;28;20553;-76
2022/04/25 04:12:25;;;;;;;21.77;9.98;;;;;;;15.23;nan;-24241.75;5011569;28;20176;-75
2022/04/25 04:14:51;;;;;;;18.95;9.98;;;;;;;15.42;nan;-24247.06;5011563;28;20176;-74
2022/04/25 04:17:17;;;;;;;17.08;9.27;;;;;;;15.91;nan;-24260.66;5014003;28;20176;-76
2022/04/25 04:19:44;;;;;;;15.98;9.38;;;;;;;16.15;nan;-24267.22;5015719;28;20570;-75
2022/04/25 04:22:10;;;;;;;19.40;9.63;;;;;;;16.26;nan;-24270.31;5014146;28;20187;-75
2022/04/25 04:24:36;;;;;;;17.23;9.80;;;;;;;16.05;nan;-24264.44;5015381;28;20176;-77
2022/04/25 04:27:03;;;;;;;17.80;9.80;;;;;;;15.95;nan;-24261.63;5015355;28;20178;-75
2022/04/25 04:29:29;;;;;;;18.15;9.60;;;;;;;15.92;nan;-24260.94;5014875;28;20168;-77
2022/04/25 04:32:01;;;;;;;16.50;9.30;;;;;;;15.72;nan;-24255.34;5015346;28;20180;-75
2022/04/25 04:34:27;;;;;;;17.40;8.88;;;;;;;15.41;nan;-24246.78;5015079;28;20247;-76
2022/04/25 04:36:53;;;;;;;20.10;9.15;;;;;;;15.35;nan;-24245.13;5015651;28;20179;-74
2022/04/25 04:39:18;;;;;;;20.13;9.68;;;;;;;15.16;nan;-24239.94;5013737;28;20184;-76
2022/04/25 04:41:44;;;;;;;20.70;9.70;;;;;;;15.60;nan;-24251.97;5015029;28;20180;-74
2022/04/25 04:44:10;;;;;;;16.90;9.10;;;;;;;16.23;nan;-24269.47;5014770;28;20716;-74
2022/04/25 04:46:36;;;;;;;23.77;8.18;;;;;;;15.98;nan;-24262.59;5015050;28;20235;-75
2022/04/25 04:49:01;;;;;;;22.95;9.10;;;;;;;16.64;nan;-24280.78;5015158;28;20168;-77
2022/04/25 04:51:27;;;;;;;15.85;8.95;;;;;;;16.93;nan;-24288.75;5015236;28;20176;-75
2022/04/25 04:53:52;;;;;;;20.67;9.55;;;;;;;17.18;nan;-24295.72;5014656;28;20243;-75
2022/04/25 04:56:17;;;;;;;17.33;9.10;;;;;;;17.13;nan;-24294.34;5014758;28;20226;-77
2022/04/25 04:58:43;;;;;;;16.60;8.90;;;;;;;17.11;nan;-24293.78;5014666;28;20172;-75
2022/04/25 05:01:08;;;;;;;18.50;8.82;;;;;;;17.28;nan;-24298.53;5014651;28;20238;-77
2022/04/25 05:03:34;;;;;;;20.17;8.98;;;;;;;17.38;nan;-24301.31;5014910;28;20207;-75
2022/04/25 05:05:59;;;;;;;24.63;9.05;;;;;;;17.83;nan;-24313.59;5014922;28;20183;-74
2022/04/25 05:08:25;;;;;;;24.33;8.90;;;;;;;17.61;nan;-24307.75;5014753;28;20176;-75
2022/04/25 05:10:51;;;;;;;17.15;8.88;;;;;;;17.65;nan;-24308.72;5013129;28;20219;-77
2022/04/25 05:13:17;;;;;;;20.40;9.10;;;;;;;17.18;nan;-24295.72;5014462;28;20626;-74
2022/04/25 05:15:42;;;;;;;17.05;8.30;;;;;;;17.32;nan;-24299.63;5014512;28;20172;-76
2022/04/25 05:18:08;;;;;;;15.10;9.18;;;;;;;17.26;nan;-24297.97;5013452;28;20567;-73
2022/04/25 05:20:33;;;;;;;18.83;8.40;;;;;;;17.49;nan;-24304.38;5014466;28;20237;-75
2022/04/25 05:22:59;;;;;;;19.80;8.50;;;;;;;17.87;nan;-24314.72;5014436;28;20279;-77
2022/04/25 05:25:25;;;;;;;15.15;8.30;;;;;;;17.92;nan;-24316.25;5014139;28;20176;-77
2022/04/25 05:27:55;;;;;;;17.20;8.20;;;;;;;17.84;nan;-24314.00;5013475;28;20700;-77
2022/04/25 05:30:24;;;;;;;17.15;8.48;;;;;;;17.97;nan;-24317.50;5014689;28;20698;-76
2022/04/25 05:32:57;;;;;;;19.33;7.78;;;;;;;17.58;nan;-24306.91;5013398;28;20271;-76
2022/04/25 05:35:28;;;;;;;17.33;7.72;;;;;;;17.98;nan;-24317.78;5012882;28;20611;-77
2022/04/25 05:37:54;;;;;;;14.20;8.88;;;;;;;17.57;nan;-24306.63;5014041;28;20194;-76
2022/04/25 05:40:20;;;;;;;14.98;8.60;;;;;;;17.99;nan;-24318.06;5014022;28;20631;-77
2022/04/25 05:42:47;;;;;;;16.80;8.30;;;;;;;17.23;nan;-24297.13;5014001;28;20188;-75
2022/04/25 05:45:21;;;;;;;19.02;9.52;;;;;;;17.31;nan;-24299.22;5013795;28;20658;-74
2022/04/25 05:47:47;;;;;;;19.75;10.52;;;;;;;16.77;nan;-24284.41;5013796;28;20216;-75
2022/04/25 05:52:59;;;;;;;17.48;9.25;;;;;;;16.93;nan;-24288.88;5013994;28;20191;-75
2022/04/25 05:55:26;;;;;;;33.70;16.65;;;;;;;16.71;nan;-24282.88;5014038;28;20233;-77
2022/04/25 05:57:52;;;;;;;32.47;16.98;;;;;;;17.04;nan;-24291.81;5013640;28;20187;-76
2022/04/25 06:00:18;;;;;;;22.73;9.55;;;;;;;16.55;nan;-24278.41;5013618;28;20168;-74
2022/04/25 06:02:45;;;;;;;18.75;8.20;;;;;;;16.88;nan;-24287.50;5013269;28;20286;-75
2022/04/25 06:05:11;;;;;;;14.95;8.02;;;;;;;17.50;nan;-24304.66;5013808;28;20636;-75
2022/04/25 06:07:41;;;;;;;15.00;7.85;;;;;;;17.66;nan;-24309.00;5013599;28;20230;-77
2022/04/25 06:10:07;;;;;;;21.83;8.45;;;;;;;17.73;nan;-24310.81;5013610;28;20179;-76
2022/04/25 06:12:32;;;;;;;18.33;8.02;;;;;;;17.52;nan;-24305.22;5013315;28;20570;-77
2022/04/25 06:15:02;;;;;;;17.73;8.30;;;;;;;17.92;nan;-24316.09;5013291;28;20251;-74
2022/04/25 06:17:28;;;;;;;21.88;8.88;;;;;;;17.90;nan;-24315.69;5013584;28;20250;-75
2022/04/25 06:19:54;;;;;;;18.85;8.95;;;;;;;18.12;nan;-24321.69;5012012;28;20172;-75
2022/04/25 06:22:20;;;;;;;17.65;8.00;;;;;;;18.39;nan;-24329.22;5013405;28;20636;-75
2022/04/25 06:24:46;;;;;;;11.35;6.45;;;;;;;18.27;nan;-24325.72;5013240;28;20172;-77
2022/04/25 06:27:11;;;;;;;17.80;6.70;;;;;;;18.38;nan;-24328.94;5013452;28;20187;-75
2022/04/25 06:29:37;;;;;;;16.15;6.82;;;;;;;18.34;nan;-24327.81;5013153;28;20191;-75
2022/04/25 06:32:05;;;;;;;14.35;6.32;;;;;;;19.03;nan;-24346.63;5013223;28;20255;-76
2022/04/25 06:34:34;;;;;;;14.80;6.10;;;;;;;19.63;nan;-24363.31;5013001;28;20218;-76
2022/04/25 06:36:59;;;;;;;12.02;6.15;;;;;;;19.63;nan;-24363.31;5013045;28;20275;-77
2022/04/25 06:39:24;;;;;;;11.68;5.90;;;;;;;19.20;nan;-24351.47;5010787;28;20584;-77
2022/04/25 06:41:50;;;;;;;10.35;5.82;;;;;;;18.30;nan;-24326.69;5012774;28;20774;-77
2022/04/25 06:44:15;;;;;;;12.57;6.35;;;;;;;18.74;nan;-24338.81;5011509;28;20215;-75
2022/04/25 06:46:43;;;;;;;13.80;6.57;;;;;;;18.31;nan;-24326.97;5013061;28;20194;-75
2022/04/25 06:49:20;;;;;;;9.40;5.53;;;;;;;18.70;nan;-24337.72;5012620;28;20259;-76
2022/04/25 06:51:58;;;;;;;14.32;5.88;;;;;;;18.56;nan;-24333.66;5012783;28;20164;-76
2022/04/25 06:54:25;;;;;;;13.98;5.53;;;;;;;19.54;nan;-24360.81;5012687;28;20593;-77
2022/04/25 06:56:52;;;;;;;13.02;5.57;;;;;;;19.73;nan;-24366.09;5012697;28;20175;-77
2022/04/25 06:59:19;;;;;;;18.63;5.70;;;;;;;19.35;nan;-24355.53;5011278;28;20180;-76
2022/04/25 07:01:44;;;;;;;13.57;5.75;;;;;;;19.32;nan;-24354.69;5012288;28;20283;-74
2022/04/25 07:04:13;;;;;;;9.07;5.30;;;;;;;19.93;nan;-24371.50;5012682;28;20744;-77
2022/04/25 07:06:39;;;;;;;15.65;5.88;;;;;;;20.06;nan;-24375.13;5012432;28;20184;-75
2022/04/25 07:09:05;;;;;;;13.38;6.22;;;;;;;20.24;nan;-24380.00;5012591;28;20172;-76
2022/04/25 07:11:31;;;;;;;15.30;5.88;;;;;;;20.05;nan;-24374.84;5012178;28;20187;-77
2022/04/25 07:13:58;;;;;;;16.48;6.00;;;;;;;20.49;nan;-24386.78;5012203;28;20558;-77
2022/04/25 07:16:25;;;;;;;14.27;6.32;;;;;;;20.04;nan;-24374.56;5012457;28;20281;-75
2022/04/25 07:18:51;;;;;;;12.93;6.40;;;;;;;20.30;nan;-24381.66;5012132;28;20628;-74
2022/04/25 07:29:28;;;;;;;10.88;5.60;;;;;;;20.85;nan;-24396.78;5012334;28;20587;-75
2022/04/25 07:31:54;;;;;;;11.27;5.47;;;;;;;21.40;nan;-24411.91;5011943;28;20172;-76
2022/04/25 07:34:21;;;;;;;14.73;6.35;;;;;;;21.30;nan;-24409.00;5012012;28;20203;-75
2022/04/25 07:36:53;;;;;;;12.68;6.10;;;;;;;21.07;nan;-24402.88;5012189;28;20171;-76
2022/04/25 07:39:20;;;;;;;12.50;5.43;;;;;;;21.31;nan;-24409.41;5011170;28;20594;-76
2022/04/25 07:41:46;;;;;;;8.75;5.00;;;;;;;21.77;nan;-24422.00;5012142;28;20168;-78
2022/04/25 07:44:12;;;;;;;11.88;5.78;;;;;;;21.82;nan;-24423.41;5012170;28;20204;-78
2022/04/25 07:46:40;;;;;;;9.10;5.63;;;;;;;22.19;nan;-24433.50;5012232;28;20262;-77
2022/04/25 07:49:09;;;;;;;14.63;7.00;;;;;;;21.90;nan;-24425.63;5012314;28;20658;-77
2022/04/25 07:51:35;;;;;;;13.18;5.05;;;;;;;21.73;nan;-24420.78;5011668;28;20168;-77
2022/04/25 07:54:01;;;;;;;12.07;5.35;;;;;;;21.84;nan;-24423.94;5011888;28;20281;-78
2022/04/25 07:56:26;;;;;;;11.82;6.55;;;;;;;21.87;nan;-24424.66;5012035;28;20172;-78
2022/04/25 07:58:52;;;;;;;12.65;5.15;;;;;;;22.00;nan;-24428.25;5011968;28;20175;-78
2022/04/25 08:01:17;;;;;;;11.13;4.82;;;;;;;21.70;nan;-24420.06;5011882;28;20212;-78
2022/04/25 08:03:43;;;;;;;10.52;4.75;;;;;;;21.65;nan;-24418.56;5011884;28;20658;-75
2022/04/25 08:06:11;;;;;;;12.25;5.05;;;;;;;21.71;nan;-24420.22;5011881;28;20234;-77
2022/04/25 08:08:36;;;;;;;9.68;4.72;;;;;;;21.86;nan;-24424.38;5012303;28;20611;-76
2022/04/25 08:11:02;;;;;;;9.85;4.90;;;;;;;22.00;nan;-24428.38;5012320;28;20183;-77
2022/04/25 08:18:57;;;;;;;12.02;4.50;;;;;;;22.41;nan;-24439.59;5011874;28;20170;-78
2022/04/25 08:21:23;;;;;;;11.63;5.00;;;;;;;21.93;nan;-24426.44;5011854;28;20184;-75
2022/04/25 08:23:48;;;;;;;12.23;5.03;;;;;;;22.05;nan;-24429.63;5011721;28;20211;-76
2022/04/25 08:26:14;;;;;;;15.60;5.47;;;;;;;22.14;nan;-24432.13;5012001;28;20237;-78
2022/04/25 08:28:41;;;;;;;13.27;4.88;;;;;;;22.72;nan;-24448.03;5011763;28;20199;-76
2022/04/25 08:31:09;;;;;;;14.68;4.53;;;;;;;22.80;nan;-24450.25;5011328;28;20175;-75
2022/04/25 08:33:35;;;;;;;13.35;4.25;;;;;;;22.72;nan;-24447.91;5011648;28;20654;-76
2022/04/25 08:36:02;;;;;;;15.30;4.95;;;;;;;22.85;nan;-24451.63;5011415;28;20193;-75
2022/04/25 08:38:27;;;;;;;10.25;4.57;;;;;;;22.98;nan;-24455.09;5011688;28;20261;-78
2022/04/25 08:40:55;;;;;;;12.73;4.72;;;;;;;22.70;nan;-24447.50;5011696;28;20172;-77
2022/04/25 08:43:20;;;;;;;9.70;4.28;;;;;;;22.80;nan;-24450.09;5010262;28;20214;-75
2022/04/25 08:45:46;;;;;;;13.90;5.43;;;;;;;23.32;nan;-24464.34;5011222;28;20188;-76
2022/04/25 08:48:12;;;;;;;15.18;4.78;;;;;;;23.64;nan;-24473.19;5011488;28;20561;-78
2022/04/25 08:50:40;;;;;;;9.05;4.40;;;;;;;23.94;nan;-24481.19;5011825;28;20182;-78
2022/04/25 08:53:07;;;;;;;14.25;4.95;;;;;;;23.64;nan;-24473.03;5011107;28;20251;-75
2022/04/25 08:55:32;;;;;;;14.82;4.53;;;;;;;23.64;nan;-24473.19;5011303;28;20172;-77
2022/04/25 08:58:00;;;;;;;15.18;4.72;;;;;;;23.66;nan;-24473.59;5011852;28;20623;-75
2022/04/25 09:00:25;;;;;;;12.07;4.57;;;;;;;23.44;nan;-24467.66;5011360;28;20183;-77
2022/04/25 09:02:52;;;;;;;14.00;4.43;;;;;;;23.48;nan;-24468.78;5012815;28;20200;-76
2022/04/25 09:05:18;;;;;;;17.35;5.35;;;;;;;23.48;nan;-24468.78;5014890;28;20200;-78
2022/04/25 09:07:44;;;;;;;11.43;4.90;;;;;;;23.61;nan;-24472.22;5015095;28;20202;-77
2022/04/25 09:10:18;;;;;;;14.43;4.40;;;;;;;23.66;nan;-24473.59;5014784;28;20223;-77
2022/04/25 09:12:46;;;;;;;16.58;5.70;;;;;;;23.73;nan;-24475.66;5015281;28;20169;-77
2022/04/25 09:15:12;;;;;;;10.55;4.25;;;;;;;24.35;nan;-24492.50;5014777;28;20172;-77
2022/04/25 09:17:38;;;;;;;14.60;4.75;;;;;;;24.42;nan;-24494.44;5013436;28;20179;-76
2022/04/25 09:20:09;;;;;;;10.90;4.75;;;;;;;24.23;nan;-24489.19;5014739;28;20198;-78
2022/04/25 09:22:36;;;;;;;13.48;4.90;;;;;;;24.18;nan;-24487.81;5014583;28;20176;-75
2022/04/25 09:25:13;;;;;;;14.70;4.50;;;;;;;24.54;nan;-24497.59;5012932;28;20184;-76
2022/04/25 09:27:41;;;;;;;12.70;4.95;;;;;;;24.23;nan;-24489.19;5014514;28;20180;-77
2022/04/25 09:30:21;;;;;;;14.50;4.68;;;;;;;24.24;nan;-24489.31;5014470;28;20172;-77
2022/04/25 09:32:48;;;;;;;12.70;5.07;;;;;;;24.13;nan;-24486.44;5014585;28;20176;-75
2022/04/25 09:35:27;;;;;;;13.13;5.07;;;;;;;24.19;nan;-24488.09;5014551;28;20234;-77
2022/04/25 09:37:53;;;;;;;15.52;4.05;;;;;;;24.03;nan;-24483.66;5014829;28;20176;-74
2022/04/25 09:40:20;;;;;;;11.90;4.28;;;;;;;23.85;nan;-24478.69;5014454;28;20242;-76
2022/04/25 09:42:47;;;;;;;15.02;5.10;;;;;;;24.34;nan;-24492.09;5014359;28;20184;-76
2022/04/25 09:45:15;;;;;;;15.93;4.80;;;;;;;24.34;nan;-24492.22;5014212;28;20258;-74
2022/04/25 09:47:41;;;;;;;9.80;5.25;;;;;;;24.47;nan;-24495.66;5014245;28;20207;-74
2022/04/25 09:50:16;;;;;;;10.68;4.03;;;;;;;23.91;nan;-24480.34;5013965;28;20530;-75
2022/04/25 09:52:54;;;;;;;12.95;4.28;;;;;;;23.86;nan;-24479.13;5013964;28;20250;-75
2022/04/25 09:55:21;;;;;;;12.45;4.32;;;;;;;24.11;nan;-24486.00;5013129;28;20210;-75
2022/04/25 09:57:49;;;;;;;12.95;4.30;;;;;;;24.42;nan;-24494.44;5013835;28;20184;-77
2022/04/25 10:00:39;;;;;;;13.88;4.78;;;;;;;24.56;nan;-24498.16;5012925;28;20219;-74
2022/04/25 10:03:06;;;;;;;17.83;5.00;;;;;;;24.89;nan;-24507.25;5014067;28;20210;-75
2022/04/25 10:05:52;;;;;;;14.82;5.20;;;;;;;25.29;nan;-24517.97;5014280;28;20179;-77
2022/04/25 10:08:18;;;;;;;12.02;5.15;;;;;;;25.24;nan;-24516.59;5013996;28;20160;-77
2022/04/25 10:10:57;;;;;;;14.75;4.75;;;;;;;25.38;nan;-24520.47;5013835;28;20242;-76
2022/04/25 10:13:24;;;;;;;15.77;5.00;;;;;;;24.70;nan;-24501.88;5013634;28;20160;-76
2022/04/25 10:15:50;;;;;;;16.58;4.90;;;;;;;24.44;nan;-24494.97;5013500;28;20500;-77
2022/04/25 10:18:16;;;;;;;12.55;4.82;;;;;;;24.74;nan;-24502.97;5013476;28;20694;-76
2022/04/25 10:20:44;;;;;;;10.63;4.60;;;;;;;24.73;nan;-24502.84;5013539;28;20180;-75
2022/04/25 10:23:14;;;;;;;10.98;4.82;;;;;;;24.26;nan;-24489.88;5013508;28;20627;-77
2022/04/25 10:25:46;;;;;;;11.85;4.57;;;;;;;24.49;nan;-24496.34;5013130;28;20554;-74
2022/04/25 10:28:24;;;;;;;14.95;5.35;;;;;;;24.87;nan;-24506.56;5013491;28;20192;-77
2022/04/25 10:30:50;;;;;;;12.85;4.35;;;;;;;25.00;nan;-24510.13;5012595;28;20211;-66
2022/04/25 10:33:16;;;;;;;17.55;4.97;;;;;;;25.47;nan;-24522.94;5013105;28;20584;-71
2022/04/25 10:35:44;;;;;;;10.13;5.05;;;;;;;25.30;nan;-24518.25;5010402;28;20191;-68
2022/04/25 10:44:18;;;;;;;14.32;4.45;;;;;;;25.83;nan;-24532.69;5012812;28;20242;-69
2022/04/25 10:47:06;;;;;;;19.48;5.60;;;;;;;25.50;nan;-24523.91;5011838;28;20267;-69
2022/04/25 10:49:32;;;;;;;11.15;4.65;;;;;;;25.68;nan;-24528.56;5011715;28;20221;-72
2022/04/25 10:51:59;;;;;;;15.98;5.00;;;;;;;25.62;nan;-24526.94;5012392;28;20184;-73
2022/04/25 10:54:28;;;;;;;10.35;4.65;;;;;;;25.97;nan;-24536.56;5012605;28;20715;-68
2022/04/25 10:57:14;;;;;;;16.10;4.88;;;;;;;25.88;nan;-24534.22;5012168;28;20184;-72
2022/04/25 10:59:40;;;;;;;13.20;5.03;;;;;;;25.79;nan;-24531.75;5009856;28;20716;-66
2022/04/25 11:02:26;;;;;;;9.48;4.95;;;;;;;26.18;nan;-24542.19;5012226;28;20180;-69
2022/04/25 11:05:10;;;;;;;12.60;5.25;;;;;;;26.52;nan;-24551.53;5010945;28;20188;-66
2022/04/25 11:07:40;;;;;;;13.43;5.13;;;;;;;26.50;nan;-24550.84;5011989;28;20180;-67
2022/04/25 11:10:06;;;;;;;13.18;5.53;;;;;;;26.42;nan;-24548.78;5004602;28;20556;-70
2022/04/25 11:12:55;;;;;;;11.90;4.43;;;;;;;26.69;nan;-24556.19;5012083;28;20200;-62
2022/04/25 11:15:42;;;;;;;16.77;5.05;;;;;;;25.93;nan;-24535.59;5006177;28;20674;-62
2022/04/25 11:18:33;;;;;;;10.00;4.75;;;;;;;26.53;nan;-24551.81;5012043;28;20680;-62
2022/04/25 11:21:12;;;;;;;11.77;5.30;;;;;;;25.99;nan;-24536.97;5012361;28;20279;-62
2022/04/25 11:23:43;;;;;;;15.02;5.00;;;;;;;25.88;nan;-24534.22;5010418;28;20290;-62
2022/04/25 11:26:11;;;;;;;12.40;4.90;;;;;;;26.12;nan;-24540.53;5011074;28;20345;-61
2022/04/25 11:28:58;;;;;;;23.92;5.25;;;;;;;26.03;nan;-24538.06;5011200;28;20180;-61
2022/04/25 11:31:30;;;;;;;18.50;5.28;;;;;;;26.09;nan;-24539.84;5012648;28;20176;-61
2022/04/25 11:34:13;;;;;;;15.43;4.75;;;;;;;26.09;nan;-24539.84;5011158;28;20238;-61
2022/04/25 11:36:44;;;;;;;18.48;5.50;;;;;;;25.66;nan;-24528.16;4996185;28;20277;-61
2022/04/25 11:41:57;;;;;;;13.57;5.28;;;;;;;26.05;nan;-24538.75;5009892;28;20237;-61
2022/04/25 11:44:23;;;;;;;14.05;5.32;;;;;;;26.33;nan;-24546.31;5007769;28;20199;-61
2022/04/25 11:46:49;;;;;;;19.10;5.25;;;;;;;25.73;nan;-24530.09;5008035;28;20266;-61
2022/04/25 11:49:28;;;;;;;14.88;4.88;;;;;;;26.31;nan;-24545.75;5010555;28;20581;-61
2022/04/25 11:51:55;;;;;;;11.55;4.35;;;;;;;26.64;nan;-24554.69;5007882;28;20195;-61
2022/04/25 11:54:21;;;;;;;10.48;5.10;;;;;;;26.73;nan;-24557.16;5010392;28;20223;-61
2022/04/25 11:56:46;;;;;;;15.07;4.93;;;;;;;26.68;nan;-24555.78;5011628;28;20223;-61
2022/04/25 11:59:14;;;;;;;18.48;5.18;;;;;;;26.67;nan;-24555.50;5011836;28;20191;-61
2022/04/25 12:01:47;;;;;;;14.65;4.78;;;;;;;26.71;nan;-24556.75;5010123;28;20188;-61
2022/04/25 12:04:17;;;;;;;18.40;5.10;;;;;;;26.92;nan;-24562.38;5011053;28;20219;-61
2022/04/25 12:06:51;;;;;;;15.25;4.63;;;;;;;26.82;nan;-24559.63;5011116;28;20181;-61